sensor_id;sensor_type;location;lat;lon;timestamp;P1;durP1;ratioP1;P2;durP2;ratioP2
61397;SDS011;47267;48.130;-2.040;2022-12-07T00:01:40;8.05;;;5.82;;
61397;SDS011;47267;48.130;-2.040;2022-12-07T00:04:09;7.93;;;5.35;;
61397;SDS011;47267;48.130;-2.040;2022-12-07T00:06:36;8.20;;;5.35;;
61397;SDS011;47267;48.130;-2.040;2022-12-07T00:09:06;7.82;;;5.32;;
61397;SDS011;47267;48.130;-2.040;2022-12-07T00:11:33;7.70;;;5.43;;
61397;SDS011;47267;48.130;-2.040;2022-12-07T00:14:00;6.55;;;5.10;;
61397;SDS011;47267;48.130;-2.040;2022-12-07T00:16:28;6.75;;;5.00;;
61397;SDS011;47267;48.130;-2.040;2022-12-07T00:18:55;7.00;;;5.40;;
61397;SDS011;47267;48.130;-2.040;2022-12-07T00:21:22;8.00;;;5.32;;
61397;SDS011;47267;48.130;-2.040;2022-12-07T00:23:49;7.45;;;5.30;;
61397;SDS011;47267;48.130;-2.040;2022-12-07T00:28:44;5.80;;;4.85;;
61397;SDS011;47267;48.130;-2.040;2022-12-07T00:31:12;8.00;;;5.03;;
61397;SDS011;47267;48.130;-2.040;2022-12-07T00:33:38;10.43;;;4.95;;
61397;SDS011;47267;48.130;-2.040;2022-12-07T00:36:08;7.90;;;5.53;;
61397;SDS011;47267;48.130;-2.040;2022-12-07T00:38:35;6.72;;;4.97;;
61397;SDS011;47267;48.130;-2.040;2022-12-07T00:41:02;6.57;;;4.80;;
61397;SDS011;47267;48.130;-2.040;2022-12-07T00:43:29;6.43;;;4.85;;
61397;SDS011;47267;48.130;-2.040;2022-12-07T00:45:55;6.45;;;4.70;;
61397;SDS011;47267;48.130;-2.040;2022-12-07T00:48:21;6.53;;;4.97;;
61397;SDS011;47267;48.130;-2.040;2022-12-07T00:50:47;6.97;;;4.90;;
61397;SDS011;47267;48.130;-2.040;2022-12-07T00:53:14;7.32;;;5.15;;
61397;SDS011;47267;48.130;-2.040;2022-12-07T00:55:40;5.95;;;4.70;;
61397;SDS011;47267;48.130;-2.040;2022-12-07T00:58:06;6.00;;;4.32;;
61397;SDS011;47267;48.130;-2.040;2022-12-07T01:00:32;7.75;;;4.97;;
61397;SDS011;47267;48.130;-2.040;2022-12-07T01:02:59;6.18;;;4.45;;
61397;SDS011;47267;48.130;-2.040;2022-12-07T01:05:26;8.27;;;5.07;;
61397;SDS011;47267;48.130;-2.040;2022-12-07T01:07:52;7.25;;;5.05;;
61397;SDS011;47267;48.130;-2.040;2022-12-07T01:10:18;6.78;;;4.93;;
61397;SDS011;47267;48.130;-2.040;2022-12-07T01:12:44;7.88;;;5.18;;
61397;SDS011;47267;48.130;-2.040;2022-12-07T01:15:10;6.35;;;4.75;;
61397;SDS011;47267;48.130;-2.040;2022-12-07T01:17:36;5.70;;;4.68;;
61397;SDS011;47267;48.130;-2.040;2022-12-07T01:20:03;6.43;;;4.78;;
61397;SDS011;47267;48.130;-2.040;2022-12-07T01:22:29;6.20;;;4.80;;
61397;SDS011;47267;48.130;-2.040;2022-12-07T01:24:55;6.15;;;4.70;;
61397;SDS011;47267;48.130;-2.040;2022-12-07T01:27:21;6.10;;;4.35;;
61397;SDS011;47267;48.130;-2.040;2022-12-07T01:29:47;5.30;;;4.38;;
61397;SDS011;47267;48.130;-2.040;2022-12-07T01:32:13;6.40;;;4.40;;
61397;SDS011;47267;48.130;-2.040;2022-12-07T01:34:39;5.80;;;4.50;;
61397;SDS011;47267;48.130;-2.040;2022-12-07T01:37:05;5.80;;;4.25;;
61397;SDS011;47267;48.130;-2.040;2022-12-07T01:39:31;7.50;;;5.05;;
61397;SDS011;47267;48.130;-2.040;2022-12-07T01:41:57;6.22;;;4.40;;
61397;SDS011;47267;48.130;-2.040;2022-12-07T01:44:24;5.43;;;4.20;;
61397;SDS011;47267;48.130;-2.040;2022-12-07T01:46:54;6.25;;;4.20;;
61397;SDS011;47267;48.130;-2.040;2022-12-07T01:51:47;4.72;;;3.75;;
61397;SDS011;47267;48.130;-2.040;2022-12-07T01:54:14;7.18;;;4.82;;
61397;SDS011;47267;48.130;-2.040;2022-12-07T01:56:49;6.03;;;4.50;;
61397;SDS011;47267;48.130;-2.040;2022-12-07T01:59:16;6.18;;;4.50;;
61397;SDS011;47267;48.130;-2.040;2022-12-07T02:01:43;5.30;;;4.03;;
61397;SDS011;47267;48.130;-2.040;2022-12-07T02:04:09;6.40;;;4.18;;
61397;SDS011;47267;48.130;-2.040;2022-12-07T02:06:36;5.22;;;4.20;;
61397;SDS011;47267;48.130;-2.040;2022-12-07T02:09:02;5.47;;;4.00;;
61397;SDS011;47267;48.130;-2.040;2022-12-07T02:11:28;5.97;;;4.18;;
61397;SDS011;47267;48.130;-2.040;2022-12-07T02:13:55;6.32;;;4.00;;
61397;SDS011;47267;48.130;-2.040;2022-12-07T02:16:23;5.20;;;4.03;;
61397;SDS011;47267;48.130;-2.040;2022-12-07T02:31:46;5.03;;;4.05;;
61397;SDS011;47267;48.130;-2.040;2022-12-07T02:34:21;6.07;;;4.22;;
61397;SDS011;47267;48.130;-2.040;2022-12-07T02:36:51;4.50;;;3.53;;
61397;SDS011;47267;48.130;-2.040;2022-12-07T02:39:20;6.13;;;4.20;;
61397;SDS011;47267;48.130;-2.040;2022-12-07T02:41:51;5.38;;;3.83;;
61397;SDS011;47267;48.130;-2.040;2022-12-07T02:44:20;5.35;;;4.13;;
61397;SDS011;47267;48.130;-2.040;2022-12-07T02:46:48;4.80;;;3.50;;
61397;SDS011;47267;48.130;-2.040;2022-12-07T02:49:16;5.22;;;3.78;;
61397;SDS011;47267;48.130;-2.040;2022-12-07T02:51:43;6.60;;;3.85;;
61397;SDS011;47267;48.130;-2.040;2022-12-07T02:54:11;6.15;;;4.10;;
61397;SDS011;47267;48.130;-2.040;2022-12-07T03:04:42;5.82;;;3.90;;
61397;SDS011;47267;48.130;-2.040;2022-12-07T03:10:03;4.85;;;3.78;;
61397;SDS011;47267;48.130;-2.040;2022-12-07T03:13:17;4.40;;;3.35;;
61397;SDS011;47267;48.130;-2.040;2022-12-07T03:15:27;5.30;;;3.60;;
61397;SDS011;47267;48.130;-2.040;2022-12-07T03:17:57;5.35;;;3.50;;
61397;SDS011;47267;48.130;-2.040;2022-12-07T03:20:24;4.90;;;3.63;;
61397;SDS011;47267;48.130;-2.040;2022-12-07T03:22:52;5.32;;;3.80;;
61397;SDS011;47267;48.130;-2.040;2022-12-07T03:25:19;4.28;;;3.33;;
61397;SDS011;47267;48.130;-2.040;2022-12-07T03:27:53;4.40;;;3.35;;
61397;SDS011;47267;48.130;-2.040;2022-12-07T03:30:26;4.28;;;3.40;;
61397;SDS011;47267;48.130;-2.040;2022-12-07T03:37:58;5.60;;;3.60;;
61397;SDS011;47267;48.130;-2.040;2022-12-07T03:42:57;4.75;;;3.53;;
61397;SDS011;47267;48.130;-2.040;2022-12-07T03:48:20;4.50;;;3.53;;
61397;SDS011;47267;48.130;-2.040;2022-12-07T03:50:50;4.57;;;3.70;;
61397;SDS011;47267;48.130;-2.040;2022-12-07T03:53:19;4.50;;;3.30;;
61397;SDS011;47267;48.130;-2.040;2022-12-07T03:55:47;4.45;;;3.35;;
61397;SDS011;47267;48.130;-2.040;2022-12-07T03:58:16;4.97;;;3.78;;
61397;SDS011;47267;48.130;-2.040;2022-12-07T04:00:43;4.68;;;3.58;;
61397;SDS011;47267;48.130;-2.040;2022-12-07T04:03:12;5.28;;;3.53;;
61397;SDS011;47267;48.130;-2.040;2022-12-07T04:05:38;4.18;;;3.58;;
61397;SDS011;47267;48.130;-2.040;2022-12-07T04:08:04;4.78;;;3.60;;
61397;SDS011;47267;48.130;-2.040;2022-12-07T04:10:31;4.32;;;3.40;;
61397;SDS011;47267;48.130;-2.040;2022-12-07T04:12:57;4.80;;;3.60;;
61397;SDS011;47267;48.130;-2.040;2022-12-07T04:15:23;5.63;;;3.60;;
61397;SDS011;47267;48.130;-2.040;2022-12-07T04:17:49;4.50;;;3.30;;
61397;SDS011;47267;48.130;-2.040;2022-12-07T04:20:16;5.00;;;3.83;;
61397;SDS011;47267;48.130;-2.040;2022-12-07T04:22:42;4.65;;;3.42;;
61397;SDS011;47267;48.130;-2.040;2022-12-07T04:25:08;4.47;;;3.38;;
61397;SDS011;47267;48.130;-2.040;2022-12-07T04:27:34;4.97;;;3.25;;
61397;SDS011;47267;48.130;-2.040;2022-12-07T04:29:59;5.07;;;3.45;;
61397;SDS011;47267;48.130;-2.040;2022-12-07T04:32:25;4.63;;;3.47;;
61397;SDS011;47267;48.130;-2.040;2022-12-07T04:34:51;4.80;;;3.22;;
61397;SDS011;47267;48.130;-2.040;2022-12-07T04:37:17;5.03;;;3.30;;
61397;SDS011;47267;48.130;-2.040;2022-12-07T04:39:42;4.60;;;3.20;;
61397;SDS011;47267;48.130;-2.040;2022-12-07T04:42:10;4.78;;;3.42;;
61397;SDS011;47267;48.130;-2.040;2022-12-07T04:44:36;4.43;;;3.38;;
61397;SDS011;47267;48.130;-2.040;2022-12-07T04:47:02;5.25;;;3.50;;
61397;SDS011;47267;48.130;-2.040;2022-12-07T04:49:28;5.47;;;3.70;;
61397;SDS011;47267;48.130;-2.040;2022-12-07T04:51:53;4.15;;;3.30;;
61397;SDS011;47267;48.130;-2.040;2022-12-07T04:54:19;4.20;;;3.50;;
61397;SDS011;47267;48.130;-2.040;2022-12-07T04:56:45;4.80;;;3.65;;
61397;SDS011;47267;48.130;-2.040;2022-12-07T04:59:11;5.07;;;3.50;;
61397;SDS011;47267;48.130;-2.040;2022-12-07T05:01:44;5.57;;;3.78;;
61397;SDS011;47267;48.130;-2.040;2022-12-07T05:04:10;4.88;;;3.38;;
61397;SDS011;47267;48.130;-2.040;2022-12-07T05:06:36;4.00;;;3.20;;
61397;SDS011;47267;48.130;-2.040;2022-12-07T05:09:02;5.65;;;3.85;;
61397;SDS011;47267;48.130;-2.040;2022-12-07T05:11:28;4.97;;;3.65;;
61397;SDS011;47267;48.130;-2.040;2022-12-07T05:14:08;4.85;;;3.40;;
61397;SDS011;47267;48.130;-2.040;2022-12-07T05:16:39;3.80;;;3.25;;
61397;SDS011;47267;48.130;-2.040;2022-12-07T05:19:05;4.28;;;3.05;;
61397;SDS011;47267;48.130;-2.040;2022-12-07T05:21:31;4.10;;;3.10;;
61397;SDS011;47267;48.130;-2.040;2022-12-07T05:23:57;3.80;;;3.08;;
61397;SDS011;47267;48.130;-2.040;2022-12-07T05:26:23;5.18;;;3.45;;
61397;SDS011;47267;48.130;-2.040;2022-12-07T05:28:52;3.92;;;3.20;;
61397;SDS011;47267;48.130;-2.040;2022-12-07T05:31:19;4.32;;;3.40;;
61397;SDS011;47267;48.130;-2.040;2022-12-07T05:33:45;4.10;;;3.40;;
61397;SDS011;47267;48.130;-2.040;2022-12-07T05:36:11;3.95;;;3.20;;
61397;SDS011;47267;48.130;-2.040;2022-12-07T05:38:37;4.47;;;3.38;;
61397;SDS011;47267;48.130;-2.040;2022-12-07T05:41:04;4.75;;;3.28;;
61397;SDS011;47267;48.130;-2.040;2022-12-07T05:43:30;5.75;;;3.72;;
61397;SDS011;47267;48.130;-2.040;2022-12-07T05:45:57;5.30;;;3.63;;
61397;SDS011;47267;48.130;-2.040;2022-12-07T05:48:23;5.20;;;3.80;;
61397;SDS011;47267;48.130;-2.040;2022-12-07T05:50:50;5.10;;;3.60;;
61397;SDS011;47267;48.130;-2.040;2022-12-07T05:53:16;4.72;;;3.22;;
61397;SDS011;47267;48.130;-2.040;2022-12-07T05:55:42;4.72;;;3.45;;
61397;SDS011;47267;48.130;-2.040;2022-12-07T05:58:08;4.30;;;3.17;;
61397;SDS011;47267;48.130;-2.040;2022-12-07T06:00:56;4.55;;;3.42;;
61397;SDS011;47267;48.130;-2.040;2022-12-07T06:03:22;4.75;;;3.28;;
61397;SDS011;47267;48.130;-2.040;2022-12-07T06:05:48;5.95;;;3.85;;
61397;SDS011;47267;48.130;-2.040;2022-12-07T06:08:14;4.07;;;3.08;;
61397;SDS011;47267;48.130;-2.040;2022-12-07T06:10:41;4.18;;;3.15;;
61397;SDS011;47267;48.130;-2.040;2022-12-07T06:13:07;4.88;;;3.33;;
61397;SDS011;47267;48.130;-2.040;2022-12-07T06:15:35;4.43;;;3.17;;
61397;SDS011;47267;48.130;-2.040;2022-12-07T06:18:02;3.58;;;2.97;;
61397;SDS011;47267;48.130;-2.040;2022-12-07T06:20:28;5.38;;;3.60;;
61397;SDS011;47267;48.130;-2.040;2022-12-07T06:22:54;4.50;;;3.20;;
61397;SDS011;47267;48.130;-2.040;2022-12-07T06:25:20;5.57;;;3.47;;
61397;SDS011;47267;48.130;-2.040;2022-12-07T06:27:46;4.88;;;3.60;;
61397;SDS011;47267;48.130;-2.040;2022-12-07T06:30:12;5.55;;;3.50;;
61397;SDS011;47267;48.130;-2.040;2022-12-07T06:32:38;9.13;;;4.22;;
61397;SDS011;47267;48.130;-2.040;2022-12-07T06:35:04;5.40;;;3.90;;
61397;SDS011;47267;48.130;-2.040;2022-12-07T06:37:30;5.78;;;3.80;;
61397;SDS011;47267;48.130;-2.040;2022-12-07T06:39:57;6.65;;;3.60;;
61397;SDS011;47267;48.130;-2.040;2022-12-07T06:42:23;6.30;;;3.83;;
61397;SDS011;47267;48.130;-2.040;2022-12-07T06:44:49;7.05;;;3.95;;
61397;SDS011;47267;48.130;-2.040;2022-12-07T06:47:15;6.90;;;3.70;;
61397;SDS011;47267;48.130;-2.040;2022-12-07T06:49:41;6.82;;;3.97;;
61397;SDS011;47267;48.130;-2.040;2022-12-07T06:52:07;5.28;;;4.03;;
61397;SDS011;47267;48.130;-2.040;2022-12-07T06:54:33;8.40;;;4.18;;
61397;SDS011;47267;48.130;-2.040;2022-12-07T06:56:59;5.35;;;3.90;;
61397;SDS011;47267;48.130;-2.040;2022-12-07T06:59:25;7.00;;;3.83;;
61397;SDS011;47267;48.130;-2.040;2022-12-07T07:01:51;6.43;;;3.90;;
61397;SDS011;47267;48.130;-2.040;2022-12-07T07:04:19;6.35;;;4.07;;
61397;SDS011;47267;48.130;-2.040;2022-12-07T07:06:45;6.28;;;4.25;;
61397;SDS011;47267;48.130;-2.040;2022-12-07T07:09:12;5.88;;;3.83;;
61397;SDS011;47267;48.130;-2.040;2022-12-07T07:11:38;7.65;;;4.30;;
61397;SDS011;47267;48.130;-2.040;2022-12-07T07:14:04;6.72;;;4.35;;
61397;SDS011;47267;48.130;-2.040;2022-12-07T07:16:30;6.13;;;4.10;;
61397;SDS011;47267;48.130;-2.040;2022-12-07T07:18:56;6.65;;;4.32;;
61397;SDS011;47267;48.130;-2.040;2022-12-07T07:21:22;5.85;;;4.00;;
61397;SDS011;47267;48.130;-2.040;2022-12-07T07:23:48;6.55;;;4.50;;
61397;SDS011;47267;48.130;-2.040;2022-12-07T07:26:14;6.72;;;4.75;;
61397;SDS011;47267;48.130;-2.040;2022-12-07T07:28:40;7.80;;;4.15;;
61397;SDS011;47267;48.130;-2.040;2022-12-07T07:31:06;6.97;;;4.53;;
61397;SDS011;47267;48.130;-2.040;2022-12-07T07:33:32;7.60;;;4.03;;
61397;SDS011;47267;48.130;-2.040;2022-12-07T07:35:59;8.55;;;4.45;;
61397;SDS011;47267;48.130;-2.040;2022-12-07T07:38:25;7.65;;;4.60;;
61397;SDS011;47267;48.130;-2.040;2022-12-07T07:40:51;5.70;;;4.28;;
61397;SDS011;47267;48.130;-2.040;2022-12-07T07:43:17;5.68;;;4.35;;
61397;SDS011;47267;48.130;-2.040;2022-12-07T07:45:43;7.32;;;4.28;;
61397;SDS011;47267;48.130;-2.040;2022-12-07T07:48:10;7.82;;;4.90;;
61397;SDS011;47267;48.130;-2.040;2022-12-07T07:50:36;9.15;;;4.43;;
61397;SDS011;47267;48.130;-2.040;2022-12-07T07:53:02;6.78;;;4.57;;
61397;SDS011;47267;48.130;-2.040;2022-12-07T07:55:28;6.60;;;4.35;;
61397;SDS011;47267;48.130;-2.040;2022-12-07T07:57:54;7.35;;;4.47;;
61397;SDS011;47267;48.130;-2.040;2022-12-07T08:00:20;6.70;;;4.40;;
61397;SDS011;47267;48.130;-2.040;2022-12-07T08:02:46;6.85;;;4.45;;
61397;SDS011;47267;48.130;-2.040;2022-12-07T08:05:13;5.78;;;4.15;;
61397;SDS011;47267;48.130;-2.040;2022-12-07T08:07:39;5.85;;;4.35;;
61397;SDS011;47267;48.130;-2.040;2022-12-07T08:10:05;5.80;;;4.28;;
61397;SDS011;47267;48.130;-2.040;2022-12-07T08:12:35;5.38;;;4.35;;
61397;SDS011;47267;48.130;-2.040;2022-12-07T08:15:01;5.32;;;4.00;;
61397;SDS011;47267;48.130;-2.040;2022-12-07T08:17:27;7.40;;;4.40;;
61397;SDS011;47267;48.130;-2.040;2022-12-07T08:19:53;8.13;;;4.20;;
61397;SDS011;47267;48.130;-2.040;2022-12-07T08:22:19;7.82;;;4.50;;
61397;SDS011;47267;48.130;-2.040;2022-12-07T08:24:45;5.40;;;4.20;;
61397;SDS011;47267;48.130;-2.040;2022-12-07T08:27:11;5.95;;;4.10;;
61397;SDS011;47267;48.130;-2.040;2022-12-07T08:29:38;5.63;;;4.30;;
61397;SDS011;47267;48.130;-2.040;2022-12-07T08:32:04;6.10;;;4.30;;
61397;SDS011;47267;48.130;-2.040;2022-12-07T08:34:30;6.07;;;3.85;;
61397;SDS011;47267;48.130;-2.040;2022-12-07T08:36:56;6.05;;;4.18;;
61397;SDS011;47267;48.130;-2.040;2022-12-07T08:39:22;6.05;;;4.15;;
61397;SDS011;47267;48.130;-2.040;2022-12-07T08:41:49;5.80;;;4.30;;
61397;SDS011;47267;48.130;-2.040;2022-12-07T08:44:15;7.47;;;4.50;;
61397;SDS011;47267;48.130;-2.040;2022-12-07T08:46:43;7.65;;;4.32;;
61397;SDS011;47267;48.130;-2.040;2022-12-07T08:49:14;5.88;;;4.35;;
61397;SDS011;47267;48.130;-2.040;2022-12-07T08:51:41;6.80;;;4.43;;
61397;SDS011;47267;48.130;-2.040;2022-12-07T08:54:09;5.38;;;4.03;;
61397;SDS011;47267;48.130;-2.040;2022-12-07T08:56:36;6.07;;;4.45;;
61397;SDS011;47267;48.130;-2.040;2022-12-07T08:59:03;6.47;;;4.13;;
61397;SDS011;47267;48.130;-2.040;2022-12-07T09:01:29;6.55;;;4.50;;
61397;SDS011;47267;48.130;-2.040;2022-12-07T09:03:56;5.18;;;4.07;;
61397;SDS011;47267;48.130;-2.040;2022-12-07T09:06:22;5.97;;;4.40;;
61397;SDS011;47267;48.130;-2.040;2022-12-07T09:08:50;5.95;;;4.40;;
61397;SDS011;47267;48.130;-2.040;2022-12-07T09:11:17;6.18;;;4.13;;
61397;SDS011;47267;48.130;-2.040;2022-12-07T09:13:43;6.25;;;4.00;;
61397;SDS011;47267;48.130;-2.040;2022-12-07T09:16:09;5.07;;;3.55;;
61397;SDS011;47267;48.130;-2.040;2022-12-07T09:18:35;7.00;;;4.70;;
61397;SDS011;47267;48.130;-2.040;2022-12-07T09:21:01;6.88;;;3.80;;
61397;SDS011;47267;48.130;-2.040;2022-12-07T09:23:27;6.90;;;4.13;;
61397;SDS011;47267;48.130;-2.040;2022-12-07T09:25:53;6.13;;;4.18;;
61397;SDS011;47267;48.130;-2.040;2022-12-07T09:28:19;6.95;;;4.60;;
61397;SDS011;47267;48.130;-2.040;2022-12-07T09:30:48;5.00;;;3.75;;
61397;SDS011;47267;48.130;-2.040;2022-12-07T09:33:15;5.05;;;3.85;;
61397;SDS011;47267;48.130;-2.040;2022-12-07T09:35:48;4.78;;;3.83;;
61397;SDS011;47267;48.130;-2.040;2022-12-07T09:38:14;6.18;;;4.45;;
61397;SDS011;47267;48.130;-2.040;2022-12-07T09:40:41;4.88;;;3.83;;
61397;SDS011;47267;48.130;-2.040;2022-12-07T09:43:18;5.63;;;4.10;;
61397;SDS011;47267;48.130;-2.040;2022-12-07T09:45:46;5.22;;;3.85;;
61397;SDS011;47267;48.130;-2.040;2022-12-07T09:48:22;5.35;;;4.28;;
61397;SDS011;47267;48.130;-2.040;2022-12-07T09:50:49;5.18;;;3.95;;
61397;SDS011;47267;48.130;-2.040;2022-12-07T09:53:20;5.97;;;4.22;;
61397;SDS011;47267;48.130;-2.040;2022-12-07T09:55:48;5.25;;;4.32;;
61397;SDS011;47267;48.130;-2.040;2022-12-07T09:58:19;5.82;;;4.22;;
61397;SDS011;47267;48.130;-2.040;2022-12-07T10:00:46;6.40;;;4.40;;
61397;SDS011;47267;48.130;-2.040;2022-12-07T10:03:12;5.50;;;4.25;;
61397;SDS011;47267;48.130;-2.040;2022-12-07T10:05:40;5.40;;;4.35;;
61397;SDS011;47267;48.130;-2.040;2022-12-07T10:08:08;5.32;;;4.20;;
61397;SDS011;47267;48.130;-2.040;2022-12-07T10:10:36;5.18;;;4.10;;
61397;SDS011;47267;48.130;-2.040;2022-12-07T10:13:07;5.40;;;4.00;;
61397;SDS011;47267;48.130;-2.040;2022-12-07T10:18:31;5.88;;;4.38;;
61397;SDS011;47267;48.130;-2.040;2022-12-07T10:23:28;5.07;;;4.20;;
61397;SDS011;47267;48.130;-2.040;2022-12-07T10:25:54;5.25;;;3.92;;
61397;SDS011;47267;48.130;-2.040;2022-12-07T10:28:20;6.07;;;4.60;;
61397;SDS011;47267;48.130;-2.040;2022-12-07T10:31:00;5.40;;;4.00;;
61397;SDS011;47267;48.130;-2.040;2022-12-07T10:35:54;5.88;;;4.25;;
61397;SDS011;47267;48.130;-2.040;2022-12-07T10:38:20;4.95;;;3.70;;
61397;SDS011;47267;48.130;-2.040;2022-12-07T10:40:46;6.25;;;4.30;;
61397;SDS011;47267;48.130;-2.040;2022-12-07T10:51:07;5.18;;;4.20;;
61397;SDS011;47267;48.130;-2.040;2022-12-07T11:09:34;6.47;;;4.20;;
61397;SDS011;47267;48.130;-2.040;2022-12-07T11:12:18;5.15;;;3.90;;
61397;SDS011;47267;48.130;-2.040;2022-12-07T11:30:36;5.00;;;3.97;;
61397;SDS011;47267;48.130;-2.040;2022-12-07T11:35:50;4.90;;;3.78;;
61397;SDS011;47267;48.130;-2.040;2022-12-07T11:38:24;4.85;;;4.10;;
61397;SDS011;47267;48.130;-2.040;2022-12-07T11:40:53;4.57;;;3.65;;
61397;SDS011;47267;48.130;-2.040;2022-12-07T11:45:52;5.15;;;3.97;;
61397;SDS011;47267;48.130;-2.040;2022-12-07T11:50:58;4.35;;;3.53;;
61397;SDS011;47267;48.130;-2.040;2022-12-07T11:56:14;4.97;;;3.92;;
61397;SDS011;47267;48.130;-2.040;2022-12-07T12:01:11;4.95;;;3.75;;
61397;SDS011;47267;48.130;-2.040;2022-12-07T12:03:47;5.45;;;3.67;;
61397;SDS011;47267;48.130;-2.040;2022-12-07T12:06:14;5.75;;;4.13;;
61397;SDS011;47267;48.130;-2.040;2022-12-07T12:08:44;6.38;;;4.03;;
61397;SDS011;47267;48.130;-2.040;2022-12-07T12:14:02;5.80;;;3.95;;
61397;SDS011;47267;48.130;-2.040;2022-12-07T12:22:04;6.72;;;4.15;;
61397;SDS011;47267;48.130;-2.040;2022-12-07T12:24:32;4.13;;;3.47;;
61397;SDS011;47267;48.130;-2.040;2022-12-07T12:27:02;5.68;;;3.78;;
61397;SDS011;47267;48.130;-2.040;2022-12-07T12:34:58;9.25;;;4.22;;
61397;SDS011;47267;48.130;-2.040;2022-12-07T12:45:27;7.35;;;4.10;;
61397;SDS011;47267;48.130;-2.040;2022-12-07T12:50:38;6.47;;;3.80;;
61397;SDS011;47267;48.130;-2.040;2022-12-07T12:58:40;11.23;;;4.05;;
61397;SDS011;47267;48.130;-2.040;2022-12-07T13:03:54;6.43;;;4.05;;
61397;SDS011;47267;48.130;-2.040;2022-12-07T13:08:49;6.63;;;4.00;;
61397;SDS011;47267;48.130;-2.040;2022-12-07T13:11:35;6.55;;;3.92;;
61397;SDS011;47267;48.130;-2.040;2022-12-07T13:16:48;7.38;;;4.40;;
61397;SDS011;47267;48.130;-2.040;2022-12-07T13:19:46;6.22;;;4.32;;
61397;SDS011;47267;48.130;-2.040;2022-12-07T13:24:57;6.25;;;3.60;;
61397;SDS011;47267;48.130;-2.040;2022-12-07T13:27:25;7.18;;;4.57;;
61397;SDS011;47267;48.130;-2.040;2022-12-07T13:29:53;9.85;;;4.60;;
61397;SDS011;47267;48.130;-2.040;2022-12-07T13:32:25;7.07;;;4.60;;
61397;SDS011;47267;48.130;-2.040;2022-12-07T13:34:51;11.32;;;4.82;;
61397;SDS011;47267;48.130;-2.040;2022-12-07T13:37:27;7.28;;;4.03;;
61397;SDS011;47267;48.130;-2.040;2022-12-07T13:39:55;9.20;;;4.03;;
61397;SDS011;47267;48.130;-2.040;2022-12-07T13:42:24;6.65;;;4.18;;
61397;SDS011;47267;48.130;-2.040;2022-12-07T13:44:51;8.85;;;4.95;;
61397;SDS011;47267;48.130;-2.040;2022-12-07T13:47:19;6.15;;;3.80;;
61397;SDS011;47267;48.130;-2.040;2022-12-07T13:49:50;8.70;;;3.70;;
61397;SDS011;47267;48.130;-2.040;2022-12-07T13:52:18;8.50;;;4.40;;
61397;SDS011;47267;48.130;-2.040;2022-12-07T13:54:48;5.75;;;3.80;;
61397;SDS011;47267;48.130;-2.040;2022-12-07T13:57:15;8.60;;;4.18;;
61397;SDS011;47267;48.130;-2.040;2022-12-07T13:59:41;7.25;;;4.07;;
61397;SDS011;47267;48.130;-2.040;2022-12-07T14:02:21;10.35;;;4.50;;
61397;SDS011;47267;48.130;-2.040;2022-12-07T14:04:48;6.55;;;4.30;;
61397;SDS011;47267;48.130;-2.040;2022-12-07T14:07:25;9.30;;;4.00;;
61397;SDS011;47267;48.130;-2.040;2022-12-07T14:12:20;9.25;;;3.95;;
61397;SDS011;47267;48.130;-2.040;2022-12-07T14:14:47;5.05;;;3.83;;
61397;SDS011;47267;48.130;-2.040;2022-12-07T14:17:21;5.93;;;4.05;;
61397;SDS011;47267;48.130;-2.040;2022-12-07T14:24:49;7.30;;;4.32;;
61397;SDS011;47267;48.130;-2.040;2022-12-07T14:27:22;7.78;;;3.75;;
61397;SDS011;47267;48.130;-2.040;2022-12-07T14:29:50;7.07;;;3.72;;
61397;SDS011;47267;48.130;-2.040;2022-12-07T14:32:21;6.13;;;3.97;;
61397;SDS011;47267;48.130;-2.040;2022-12-07T14:34:56;5.28;;;3.78;;
61397;SDS011;47267;48.130;-2.040;2022-12-07T14:37:23;5.95;;;3.85;;
61397;SDS011;47267;48.130;-2.040;2022-12-07T14:39:49;6.32;;;3.80;;
61397;SDS011;47267;48.130;-2.040;2022-12-07T14:42:15;6.60;;;3.67;;
61397;SDS011;47267;48.130;-2.040;2022-12-07T14:44:41;5.70;;;3.47;;
61397;SDS011;47267;48.130;-2.040;2022-12-07T14:47:10;5.57;;;3.80;;
61397;SDS011;47267;48.130;-2.040;2022-12-07T14:49:37;8.55;;;3.97;;
61397;SDS011;47267;48.130;-2.040;2022-12-07T14:52:03;5.03;;;3.42;;
61397;SDS011;47267;48.130;-2.040;2022-12-07T14:54:30;6.95;;;5.32;;
61397;SDS011;47267;48.130;-2.040;2022-12-07T14:56:57;6.35;;;5.15;;
61397;SDS011;47267;48.130;-2.040;2022-12-07T14:59:23;8.30;;;5.30;;
61397;SDS011;47267;48.130;-2.040;2022-12-07T15:01:49;7.38;;;5.13;;
61397;SDS011;47267;48.130;-2.040;2022-12-07T15:04:15;6.70;;;5.30;;
61397;SDS011;47267;48.130;-2.040;2022-12-07T15:06:41;8.55;;;5.80;;
61397;SDS011;47267;48.130;-2.040;2022-12-07T15:09:09;11.88;;;6.75;;
61397;SDS011;47267;48.130;-2.040;2022-12-07T15:11:36;7.03;;;6.32;;
61397;SDS011;47267;48.130;-2.040;2022-12-07T15:14:02;11.02;;;7.40;;
61397;SDS011;47267;48.130;-2.040;2022-12-07T15:16:36;12.05;;;8.80;;
61397;SDS011;47267;48.130;-2.040;2022-12-07T15:19:02;10.05;;;9.00;;
61397;SDS011;47267;48.130;-2.040;2022-12-07T15:21:28;9.40;;;7.32;;
61397;SDS011;47267;48.130;-2.040;2022-12-07T15:23:54;8.63;;;4.20;;
61397;SDS011;47267;48.130;-2.040;2022-12-07T15:26:20;7.13;;;4.07;;
61397;SDS011;47267;48.130;-2.040;2022-12-07T15:28:47;6.82;;;4.30;;
61397;SDS011;47267;48.130;-2.040;2022-12-07T15:31:13;8.90;;;4.45;;
61397;SDS011;47267;48.130;-2.040;2022-12-07T15:33:40;6.93;;;4.22;;
61397;SDS011;47267;48.130;-2.040;2022-12-07T15:36:06;7.55;;;4.20;;
61397;SDS011;47267;48.130;-2.040;2022-12-07T15:38:32;9.25;;;5.35;;
61397;SDS011;47267;48.130;-2.040;2022-12-07T15:40:58;7.30;;;4.47;;
61397;SDS011;47267;48.130;-2.040;2022-12-07T15:43:24;7.47;;;4.03;;
61397;SDS011;47267;48.130;-2.040;2022-12-07T15:46:09;7.20;;;3.90;;
61397;SDS011;47267;48.130;-2.040;2022-12-07T15:48:35;6.80;;;4.13;;
61397;SDS011;47267;48.130;-2.040;2022-12-07T15:51:07;9.43;;;4.53;;
61397;SDS011;47267;48.130;-2.040;2022-12-07T15:53:34;8.73;;;4.50;;
61397;SDS011;47267;48.130;-2.040;2022-12-07T15:56:00;10.75;;;4.18;;
61397;SDS011;47267;48.130;-2.040;2022-12-07T15:58:26;6.45;;;4.45;;
61397;SDS011;47267;48.130;-2.040;2022-12-07T16:00:53;8.85;;;4.45;;
61397;SDS011;47267;48.130;-2.040;2022-12-07T16:03:19;7.50;;;4.10;;
61397;SDS011;47267;48.130;-2.040;2022-12-07T16:05:49;7.75;;;4.32;;
61397;SDS011;47267;48.130;-2.040;2022-12-07T16:08:15;6.85;;;3.88;;
61397;SDS011;47267;48.130;-2.040;2022-12-07T16:10:41;7.07;;;4.10;;
61397;SDS011;47267;48.130;-2.040;2022-12-07T16:13:08;8.63;;;4.55;;
61397;SDS011;47267;48.130;-2.040;2022-12-07T16:15:41;9.10;;;4.30;;
61397;SDS011;47267;48.130;-2.040;2022-12-07T16:18:07;10.48;;;4.78;;
61397;SDS011;47267;48.130;-2.040;2022-12-07T16:20:33;7.57;;;4.57;;
61397;SDS011;47267;48.130;-2.040;2022-12-07T16:22:59;10.55;;;4.28;;
61397;SDS011;47267;48.130;-2.040;2022-12-07T16:25:24;8.48;;;4.45;;
61397;SDS011;47267;48.130;-2.040;2022-12-07T16:27:51;6.03;;;4.32;;
61397;SDS011;47267;48.130;-2.040;2022-12-07T16:30:17;7.63;;;4.57;;
61397;SDS011;47267;48.130;-2.040;2022-12-07T16:32:43;8.48;;;4.00;;
61397;SDS011;47267;48.130;-2.040;2022-12-07T16:35:09;6.78;;;4.10;;
61397;SDS011;47267;48.130;-2.040;2022-12-07T16:37:36;11.02;;;4.63;;
61397;SDS011;47267;48.130;-2.040;2022-12-07T16:40:02;8.73;;;4.45;;
61397;SDS011;47267;48.130;-2.040;2022-12-07T16:42:34;7.68;;;4.63;;
61397;SDS011;47267;48.130;-2.040;2022-12-07T16:45:02;8.82;;;4.70;;
61397;SDS011;47267;48.130;-2.040;2022-12-07T16:47:29;7.97;;;4.85;;
61397;SDS011;47267;48.130;-2.040;2022-12-07T16:49:55;8.30;;;4.70;;
61397;SDS011;47267;48.130;-2.040;2022-12-07T16:52:21;7.22;;;4.72;;
61397;SDS011;47267;48.130;-2.040;2022-12-07T16:54:47;8.75;;;4.72;;
61397;SDS011;47267;48.130;-2.040;2022-12-07T16:57:14;10.35;;;5.57;;
61397;SDS011;47267;48.130;-2.040;2022-12-07T16:59:41;8.70;;;5.38;;
61397;SDS011;47267;48.130;-2.040;2022-12-07T17:02:08;11.35;;;5.72;;
61397;SDS011;47267;48.130;-2.040;2022-12-07T17:04:36;8.95;;;5.50;;